Time;durP1;ratioP1;P1;durP2;ratioP2;P2;SDS_P1;SDS_P2;PMS_P1;PMS_P2;Temp;Humidity;BMP_temperature;BMP_pressure;BME280_temperature;BME280_humidity;BME280_pressure;Samples;Min_cycle;Max_cycle;Signal;HPM_P1;HPM_P2
2023/06/21 00:00:15;;;;;;;12.10;9.80;;;15.30;99.90;;;;;;5032484;28;20673;-77
2023/06/21 00:02:42;;;;;;;16.42;8.65;;;15.30;99.90;;;;;;5034850;28;20048;-76
2023/06/21 00:05:09;;;;;;;16.70;9.48;;;15.30;99.90;;;;;;5021402;28;20044;-77
2023/06/21 00:07:34;;;;;;;11.68;8.45;;;15.40;99.90;;;;;;5023902;28;20041;-77
2023/06/21 00:10:01;;;;;;;12.52;7.80;;;15.50;99.90;;;;;;5019338;28;20107;-77
2023/06/21 00:12:27;;;;;;;13.93;7.70;;;15.50;99.90;;;;;;5018549;28;20387;-77
2023/06/21 00:14:53;;;;;;;12.10;5.88;;;15.50;99.90;;;;;;5017117;28;20087;-77
2023/06/21 00:17:19;;;;;;;11.55;6.75;;;15.60;99.90;;;;;;5062887;28;20028;-77
2023/06/21 00:19:47;;;;;;;11.73;5.97;;;15.60;99.90;;;;;;5037315;28;20307;-77
2023/06/21 00:22:14;;;;;;;8.15;5.47;;;15.50;99.90;;;;;;5038314;28;20073;-77
2023/06/21 00:24:39;;;;;;;13.18;5.40;;;15.50;99.90;;;;;;5048412;28;20024;-77
2023/06/21 00:27:05;;;;;;;10.00;6.10;;;15.40;99.90;;;;;;5040412;28;20128;-77
2023/06/21 00:29:31;;;;;;;8.38;5.78;;;15.40;99.90;;;;;;5030397;28;20030;-77
2023/06/21 00:31:58;;;;;;;9.80;5.38;;;15.40;99.90;;;;;;5023122;28;20502;-77
2023/06/21 00:34:23;;;;;;;7.28;5.78;;;15.40;99.90;;;;;;5026614;28;20033;-77
2023/06/21 00:36:49;;;;;;;11.23;6.63;;;15.30;99.90;;;;;;5012982;28;21306;-76
2023/06/21 00:39:14;;;;;;;9.60;6.00;;;15.30;99.90;;;;;;5033699;28;20041;-77
2023/06/21 00:41:40;;;;;;;6.97;4.50;;;15.30;99.90;;;;;;5023351;28;20107;-77
2023/06/21 00:44:07;;;;;;;13.02;5.18;;;15.30;99.90;;;;;;5017767;28;20032;-77
2023/06/21 00:46:34;;;;;;;7.15;4.45;;;15.40;99.90;;;;;;5025462;28;20026;-77
2023/06/21 00:49:00;;;;;;;10.30;4.40;;;15.50;99.90;;;;;;5039732;28;20020;-77
2023/06/21 00:51:25;;;;;;;6.10;4.40;;;15.60;99.90;;;;;;5017045;28;20115;-77
2023/06/21 00:53:51;;;;;;;12.05;4.60;;;15.60;99.90;;;;;;5037011;28;20134;-76
2023/06/21 00:56:17;;;;;;;9.43;4.80;;;15.70;99.90;;;;;;5019665;28;20040;-77
2023/06/21 00:58:43;;;;;;;7.75;4.43;;;15.70;99.90;;;;;;5024778;28;20064;-77
2023/06/21 01:01:09;;;;;;;7.25;4.47;;;15.80;99.90;;;;;;5036917;28;20082;-77
2023/06/21 01:03:36;;;;;;;8.63;3.88;;;15.80;99.90;;;;;;5036806;28;20025;-76
2023/06/21 01:06:37;;;;;;;5.95;3.42;;;15.80;99.90;;;;;;5391689;23;20050;-77
2023/06/21 01:09:09;;;;;;;7.25;3.67;;;15.90;99.90;;;;;;5002406;28;20034;-77
2023/06/21 01:11:55;;;;;;;5.10;3.47;;;16.00;99.90;;;;;;5014097;28;20124;-78
2023/06/21 01:14:38;;;;;;;5.43;3.45;;;16.00;99.90;;;;;;5022714;28;20034;-79
2023/06/21 01:17:07;;;;;;;6.80;3.17;;;16.10;99.90;;;;;;5005612;28;20044;-77
2023/06/21 01:19:52;;;;;;;7.07;3.50;;;16.20;99.90;;;;;;5024205;28;20099;-78
2023/06/21 01:22:24;;;;;;;5.40;2.97;;;16.30;99.90;;;;;;5023297;28;20045;-78
2023/06/21 01:24:50;;;;;;;;;;;16.30;99.90;;;;;;5021500;22;20045;-79
2023/06/21 01:27:22;;;;;;;9.93;3.15;;;16.30;99.90;;;;;;5010022;28;19971;-78
2023/06/21 01:29:55;;;;;;;8.43;4.03;;;16.30;99.90;;;;;;5019793;28;20033;-78
2023/06/21 01:32:21;;;;;;;8.85;4.10;;;16.30;99.90;;;;;;5020153;28;20038;-78
2023/06/21 01:34:48;;;;;;;9.85;5.00;;;16.30;99.90;;;;;;5003533;28;20042;-78
2023/06/21 01:37:14;;;;;;;6.88;3.63;;;16.30;99.90;;;;;;5004069;28;20029;-77
2023/06/21 01:39:39;;;;;;;7.50;3.80;;;16.30;99.90;;;;;;5021067;28;20033;-77
2023/06/21 01:42:05;;;;;;;4.32;3.30;;;16.20;99.90;;;;;;5017192;28;20033;-78
2023/06/21 01:44:31;;;;;;;6.20;3.25;;;16.00;99.90;;;;;;5017261;28;20365;-78
2023/06/21 01:46:58;;;;;;;7.32;3.53;;;15.90;99.90;;;;;;5024997;28;20034;-78
2023/06/21 01:49:26;;;;;;;5.55;3.00;;;15.70;99.90;;;;;;5013022;28;20479;-78
2023/06/21 01:51:53;;;;;;;7.10;3.65;;;15.60;99.90;;;;;;5015343;28;20057;-78
2023/06/21 01:54:20;;;;;;;6.70;4.28;;;15.50;99.90;;;;;;5021450;28;20465;-78
2023/06/21 01:56:49;;;;;;;7.78;4.35;;;15.40;99.90;;;;;;5021727;28;20034;-78
2023/06/21 01:59:15;;;;;;;7.10;4.40;;;15.30;99.90;;;;;;5005736;28;20091;-78
2023/06/21 02:01:42;;;;;;;11.52;7.30;;;15.20;99.90;;;;;;5019759;28;20768;-78
2023/06/21 02:04:15;;;;;;;12.10;7.15;;;15.20;99.90;;;;;;5476893;22;20548;-78
2023/06/21 02:06:41;;;;;;;9.43;6.25;;;15.10;99.90;;;;;;4967141;28;20410;-77
2023/06/21 02:09:09;;;;;;;8.50;3.92;;;15.10;99.90;;;;;;4970802;28;20039;-77
2023/06/21 02:11:35;;;;;;;8.10;4.00;;;15.10;99.90;;;;;;4969743;28;20402;-78
2023/06/21 02:14:02;;;;;;;5.78;3.60;;;15.20;99.90;;;;;;4977490;28;20030;-77
2023/06/21 02:16:29;;;;;;;8.57;4.40;;;15.20;99.90;;;;;;4980337;28;20022;-78
2023/06/21 02:18:54;;;;;;;9.73;3.83;;;15.30;99.90;;;;;;4983976;28;20022;-78
2023/06/21 02:21:20;;;;;;;6.78;4.25;;;15.40;99.90;;;;;;4973526;28;20030;-78
2023/06/21 02:23:46;;;;;;;9.73;4.03;;;15.50;99.90;;;;;;4968602;28;20030;-78
2023/06/21 02:26:12;;;;;;;7.25;4.05;;;15.60;99.90;;;;;;4976450;28;20033;-78
2023/06/21 02:28:38;;;;;;;6.57;3.72;;;15.60;99.90;;;;;;4977841;28;20517;-78
2023/06/21 02:31:04;;;;;;;8.05;3.90;;;15.70;99.90;;;;;;4976426;28;20045;-78
2023/06/21 02:33:31;;;;;;;8.48;4.95;;;15.80;99.90;;;;;;4981839;28;20038;-78
2023/06/21 02:35:57;;;;;;;9.23;4.20;;;15.90;99.90;;;;;;4983891;28;20394;-78
2023/06/21 02:38:25;;;;;;;6.80;4.22;;;15.90;99.90;;;;;;4986826;28;20019;-78
2023/06/21 02:40:51;;;;;;;8.55;4.05;;;16.00;99.90;;;;;;4986044;28;20049;-77
2023/06/21 02:43:16;;;;;;;10.35;3.83;;;16.00;99.90;;;;;;4985485;28;20035;-77
2023/06/21 02:45:42;;;;;;;7.32;4.45;;;16.10;99.90;;;;;;4987516;28;20035;-78
2023/06/21 02:48:08;;;;;;;5.47;4.05;;;16.10;99.90;;;;;;4985286;28;20207;-78
2023/06/21 02:50:33;;;;;;;7.07;4.00;;;16.10;99.90;;;;;;4983102;28;20388;-78
2023/06/21 02:52:59;;;;;;;10.20;3.90;;;16.20;99.90;;;;;;4984923;28;20030;-78
2023/06/21 02:55:24;;;;;;;5.47;4.10;;;16.20;99.90;;;;;;4986342;28;20473;-78
2023/06/21 02:57:50;;;;;;;4.22;3.20;;;16.20;99.90;;;;;;4983929;28;20027;-78
2023/06/21 03:00:19;;;;;;;5.07;3.15;;;16.30;99.90;;;;;;4982222;28;20034;-78
2023/06/21 03:02:45;;;;;;;7.22;3.38;;;16.30;99.90;;;;;;4983804;28;20096;-78
2023/06/21 03:05:12;;;;;;;7.72;3.40;;;16.30;99.90;;;;;;4979976;28;20528;-78
2023/06/21 03:07:43;;;;;;;5.65;2.92;;;16.30;99.90;;;;;;4982410;28;20030;-78
2023/06/21 03:10:15;;;;;;;4.97;2.85;;;16.30;99.90;;;;;;4983047;28;20456;-78
2023/06/21 03:12:42;;;;;;;5.05;3.22;;;16.30;99.90;;;;;;4982223;28;20065;-78
2023/06/21 03:15:09;;;;;;;7.35;2.88;;;16.30;99.90;;;;;;4981554;28;20564;-78
2023/06/21 03:17:35;;;;;;;6.95;3.22;;;16.40;99.90;;;;;;4980216;28;20162;-78
2023/06/21 03:20:02;;;;;;;6.53;2.85;;;16.40;99.90;;;;;;4981937;28;20076;-78
2023/06/21 03:22:28;;;;;;;4.60;2.65;;;16.40;99.90;;;;;;4979701;28;20043;-78
2023/06/21 03:24:54;;;;;;;11.77;3.60;;;16.40;99.90;;;;;;4977912;28;20039;-78
2023/06/21 03:27:19;;;;;;;5.15;2.80;;;16.40;99.90;;;;;;4980353;28;20108;-78
2023/06/21 03:29:45;;;;;;;6.05;2.83;;;16.40;99.90;;;;;;4977608;28;20117;-78
2023/06/21 03:32:10;;;;;;;7.30;2.90;;;16.30;99.90;;;;;;4974123;28;20451;-79
2023/06/21 03:34:36;;;;;;;4.68;2.60;;;16.30;99.90;;;;;;4974393;28;20070;-78
2023/06/21 03:37:02;;;;;;;5.47;2.58;;;16.30;99.90;;;;;;4980652;28;20744;-78
2023/06/21 03:39:27;;;;;;;7.20;3.10;;;16.20;99.90;;;;;;4980142;28;20542;-78
2023/06/21 03:41:53;;;;;;;5.80;3.25;;;16.30;99.90;;;;;;4980241;28;20435;-78
2023/06/21 03:44:18;;;;;;;6.18;2.97;;;16.30;99.90;;;;;;4980754;28;20037;-78
2023/06/21 03:46:44;;;;;;;5.93;3.03;;;16.30;99.90;;;;;;4975557;28;20027;-78
2023/06/21 03:49:09;;;;;;;5.82;2.83;;;16.30;99.90;;;;;;4976656;28;20508;-78
2023/06/21 03:51:35;;;;;;;9.23;3.22;;;16.30;99.90;;;;;;4980411;28;20026;-78
2023/06/21 03:54:01;;;;;;;4.97;2.88;;;16.30;99.90;;;;;;4980286;28;20486;-78
2023/06/21 03:56:28;;;;;;;6.15;3.10;;;16.30;99.90;;;;;;4979778;28;20509;-78
2023/06/21 03:58:53;;;;;;;4.57;3.40;;;16.20;99.90;;;;;;4995149;28;20034;-79
2023/06/21 04:01:19;;;;;;;4.43;3.10;;;16.00;99.90;;;;;;4982180;28;20116;-78
2023/06/21 04:03:44;;;;;;;5.30;3.50;;;15.90;99.90;;;;;;4982531;28;20050;-78
2023/06/21 04:06:10;;;;;;;4.15;2.97;;;15.80;99.90;;;;;;4965738;28;20067;-78
2023/06/21 04:08:35;;;;;;;8.38;3.50;;;15.70;99.90;;;;;;4960840;28;20527;-78
2023/06/21 04:11:01;;;;;;;5.43;3.00;;;15.60;99.90;;;;;;4978412;28;20019;-79
2023/06/21 04:13:27;;;;;;;5.47;3.47;;;15.50;99.90;;;;;;4980482;28;20031;-78
2023/06/21 04:15:52;;;;;;;6.68;3.45;;;15.40;99.90;;;;;;4981010;28;20073;-78
2023/06/21 04:18:18;;;;;;;7.47;3.83;;;15.40;99.90;;;;;;4982995;28;20091;-78
2023/06/21 04:20:43;;;;;;;5.90;4.28;;;15.30;99.90;;;;;;4984796;28;20512;-78
2023/06/21 04:23:09;;;;;;;6.32;4.10;;;15.30;99.90;;;;;;4980141;28;20053;-78
2023/06/21 04:25:35;;;;;;;8.10;4.13;;;15.20;99.90;;;;;;4978866;28;20030;-78
2023/06/21 04:28:01;;;;;;;9.02;5.22;;;15.20;99.90;;;;;;4980707;28;20224;-78
2023/06/21 04:30:26;;;;;;;7.70;5.40;;;15.20;99.90;;;;;;4977760;28;20098;-78
2023/06/21 04:32:52;;;;;;;8.18;5.40;;;15.30;99.90;;;;;;4980266;28;20031;-78
2023/06/21 04:35:18;;;;;;;9.27;5.25;;;15.30;99.90;;;;;;4981664;28;20509;-78
2023/06/21 04:37:45;;;;;;;6.70;5.10;;;15.30;99.90;;;;;;4980202;28;20041;-78
2023/06/21 04:40:18;;;;;;;7.47;4.85;;;15.30;99.90;;;;;;4982249;28;20169;-78
2023/06/21 04:42:54;;;;;;;8.18;5.38;;;15.30;99.90;;;;;;4983746;28;20477;-78
2023/06/21 04:45:20;;;;;;;8.45;5.15;;;15.30;99.90;;;;;;4974344;28;20084;-78
2023/06/21 04:47:48;;;;;;;9.60;5.35;;;15.40;99.90;;;;;;4985298;28;20030;-78
2023/06/21 04:50:15;;;;;;;8.90;5.80;;;15.40;99.90;;;;;;4984193;28;20038;-78
2023/06/21 04:52:41;;;;;;;7.70;5.82;;;15.40;99.90;;;;;;4983655;28;20409;-78
2023/06/21 04:55:08;;;;;;;7.28;5.57;;;15.40;99.90;;;;;;4983580;28;20037;-78
2023/06/21 04:57:34;;;;;;;7.45;5.13;;;15.50;99.90;;;;;;4985010;28;20521;-78
2023/06/21 05:00:06;;;;;;;7.55;5.00;;;15.50;99.90;;;;;;4983250;28;20176;-78
2023/06/21 05:02:32;;;;;;;6.35;5.10;;;15.50;99.90;;;;;;4983122;28;20038;-78
2023/06/21 05:04:58;;;;;;;7.20;5.22;;;15.60;99.90;;;;;;4982964;28;20072;-79
2023/06/21 05:07:23;;;;;;;8.35;5.00;;;15.60;99.90;;;;;;4984075;28;20938;-78
2023/06/21 05:09:49;;;;;;;8.32;4.80;;;15.60;99.90;;;;;;4983938;28;20044;-78
2023/06/21 05:12:14;;;;;;;8.88;4.90;;;15.70;99.90;;;;;;4983062;28;20497;-78
2023/06/21 05:14:40;;;;;;;7.03;4.70;;;15.70;99.90;;;;;;4982265;28;20034;-78
2023/06/21 05:17:06;;;;;;;9.60;5.20;;;15.80;99.90;;;;;;4984294;28;20556;-78
2023/06/21 05:19:31;;;;;;;8.00;5.90;;;15.80;99.90;;;;;;4980582;28;20038;-78
2023/06/21 05:21:57;;;;;;;7.80;5.90;;;15.90;99.90;;;;;;4973966;28;20047;-78
2023/06/21 05:24:23;;;;;;;11.23;5.85;;;16.00;99.90;;;;;;4979540;28;20260;-78
2023/06/21 05:26:48;;;;;;;11.60;5.97;;;16.10;99.90;;;;;;4976647;28;20105;-78
2023/06/21 05:29:14;;;;;;;10.40;6.00;;;16.20;99.90;;;;;;4981577;28;20053;-78
2023/06/21 05:31:43;;;;;;;11.93;5.68;;;16.30;99.90;;;;;;4981037;28;20030;-78
2023/06/21 05:34:09;;;;;;;8.85;4.95;;;16.40;99.90;;;;;;4979748;28;20066;-78
2023/06/21 05:36:35;;;;;;;8.38;5.00;;;16.50;99.90;;;;;;4981331;28;20064;-77
2023/06/21 05:39:00;;;;;;;6.40;5.15;;;16.70;99.90;;;;;;4980968;28;20033;-78
2023/06/21 05:41:26;;;;;;;7.20;4.95;;;17.00;99.90;;;;;;4980535;28;20459;-78
2023/06/21 05:43:52;;;;;;;8.82;5.25;;;17.20;99.90;;;;;;4976079;28;20140;-79
2023/06/21 05:46:18;;;;;;;7.93;5.40;;;17.30;99.90;;;;;;4978148;28;20088;-78
2023/06/21 05:48:44;;;;;;;7.10;5.03;;;17.40;99.90;;;;;;4976305;28;20555;-78
2023/06/21 05:51:10;;;;;;;8.55;5.05;;;17.50;99.90;;;;;;4980040;28;20034;-78
2023/06/21 05:53:35;;;;;;;7.43;4.78;;;17.60;99.90;;;;;;4981488;28;20089;-78
2023/06/21 05:56:01;;;;;;;8.05;4.90;;;17.80;99.90;;;;;;4984784;28;20549;-78
2023/06/21 05:58:27;;;;;;;8.07;4.53;;;18.10;99.90;;;;;;4978660;28;20034;-78
2023/06/21 06:00:53;;;;;;;5.82;4.53;;;18.30;99.90;;;;;;4979255;28;20085;-78
2023/06/21 06:03:19;;;;;;;8.25;4.32;;;18.70;99.90;;;;;;4974774;28;20073;-78
2023/06/21 06:05:45;;;;;;;7.32;3.28;;;19.00;99.90;;;;;;4978106;28;20085;-78
2023/06/21 06:08:11;;;;;;;4.53;2.85;;;19.10;99.90;;;;;;4980150;28;20050;-78
2023/06/21 06:10:37;;;;;;;6.03;3.28;;;19.00;99.90;;;;;;4982624;28;20088;-78
2023/06/21 06:13:02;;;;;;;4.97;2.67;;;19.00;99.90;;;;;;4982758;28;20057;-79
2023/06/21 06:15:28;;;;;;;7.60;2.88;;;19.30;99.90;;;;;;4999007;28;20504;-79
2023/06/21 06:17:53;;;;;;;5.35;2.90;;;19.60;99.90;;;;;;4985164;28;20026;-78
2023/06/21 06:20:19;;;;;;;7.55;3.40;;;19.80;99.90;;;;;;4981895;28;20104;-77
2023/06/21 06:22:47;;;;;;;6.63;3.10;;;19.90;99.90;;;;;;4982710;28;20045;-78
2023/06/21 06:25:13;;;;;;;5.22;2.90;;;20.00;99.90;;;;;;4977441;28;20135;-78
2023/06/21 06:27:38;;;;;;;6.90;2.90;;;19.90;99.90;;;;;;4976333;28;20570;-78
2023/06/21 06:30:05;;;;;;;5.65;2.85;;;20.00;99.90;;;;;;4975040;28;20030;-79
2023/06/21 06:32:31;;;;;;;9.02;2.83;;;20.10;99.90;;;;;;4955881;28;20045;-78
2023/06/21 06:34:56;;;;;;;5.57;2.72;;;20.30;99.90;;;;;;4973768;28;20035;-78
2023/06/21 06:37:24;;;;;;;4.80;2.47;;;20.50;99.90;;;;;;4978340;28;20348;-79
2023/06/21 06:39:51;;;;;;;5.50;2.97;;;20.60;99.90;;;;;;4989334;28;20829;-78
2023/06/21 06:42:17;;;;;;;8.77;3.13;;;20.50;99.90;;;;;;4977849;28;20053;-78
2023/06/21 06:44:43;;;;;;;4.82;2.97;;;20.60;99.90;;;;;;4979256;28;20358;-78
2023/06/21 06:47:09;;;;;;;4.72;2.55;;;20.60;99.90;;;;;;4974849;28;20030;-79
2023/06/21 06:49:34;;;;;;;5.10;2.42;;;21.00;99.90;;;;;;4981128;28;20044;-78
2023/06/21 06:52:00;;;;;;;7.20;3.03;;;21.30;99.90;;;;;;4992881;28;20033;-79
2023/06/21 06:54:26;;;;;;;5.18;2.58;;;21.40;99.90;;;;;;4996175;28;20031;-78
2023/06/21 06:56:51;;;;;;;4.55;2.67;;;21.90;99.90;;;;;;4981239;28;20126;-78
2023/06/21 06:59:17;;;;;;;5.72;2.53;;;22.30;99.90;;;;;;4979359;28;20057;-78
2023/06/21 07:01:43;;;;;;;9.38;2.72;;;22.70;99.90;;;;;;4962401;28;20470;-79
2023/06/21 07:04:08;;;;;;;6.60;3.15;;;22.90;99.90;;;;;;4979635;28;20548;-79
2023/06/21 07:06:34;;;;;;;5.15;2.53;;;23.00;99.90;;;;;;4982410;28;20141;-79
2023/06/21 07:09:02;;;;;;;5.40;2.63;;;23.20;99.90;;;;;;4991008;28;20389;-80
2023/06/21 07:11:28;;;;;;;5.85;2.30;;;23.30;99.90;;;;;;4997360;28;20062;-79
2023/06/21 07:13:54;;;;;;;4.88;2.58;;;23.50;99.90;;;;;;4982080;28;20034;-78
2023/06/21 07:16:20;;;;;;;2.70;1.90;;;23.60;99.90;;;;;;4982542;28;20038;-78
2023/06/21 07:18:46;;;;;;;3.35;1.80;;;23.60;99.90;;;;;;4979657;28;20125;-78
2023/06/21 07:21:12;;;;;;;4.80;2.10;;;23.70;99.90;;;;;;4979573;28;20121;-79
2023/06/21 07:23:37;;;;;;;3.78;2.00;;;23.60;99.90;;;;;;4980629;28;20030;-78
2023/06/21 07:26:03;;;;;;;5.13;2.05;;;23.50;99.90;;;;;;4991051;28;20080;-79
2023/06/21 07:28:29;;;;;;;4.45;1.98;;;23.70;99.90;;;;;;4981119;28;20030;-78
2023/06/21 07:30:54;;;;;;;5.97;1.70;;;24.10;99.90;;;;;;4979618;28;20120;-78
2023/06/21 07:33:21;;;;;;;4.18;1.70;;;25.30;99.90;;;;;;4979730;28;20069;-79
2023/06/21 07:35:47;;;;;;;5.32;1.95;;;25.70;99.90;;;;;;4979434;28;20125;-79
2023/06/21 07:38:13;;;;;;;5.78;1.80;;;27.20;99.90;;;;;;4978317;28;20573;-78
2023/06/21 07:40:38;;;;;;;5.50;1.50;;;28.90;99.90;;;;;;4977089;28;20519;-78
2023/06/21 07:43:05;;;;;;;6.78;1.90;;;29.60;99.90;;;;;;4972205;28;20048;-77
2023/06/21 07:45:31;;;;;;;5.97;1.83;;;29.30;99.90;;;;;;4977594;28;20568;-79
2023/06/21 07:47:56;;;;;;;3.58;1.67;;;28.90;98.90;;;;;;4974430;28;20030;-77
2023/06/21 07:50:25;;;;;;;5.13;1.85;;;28.90;99.40;;;;;;4972271;28;20030;-79
2023/06/21 07:52:50;;;;;;;6.35;1.75;;;29.20;97.50;;;;;;4970954;28;20039;-78
2023/06/21 07:55:16;;;;;;;6.40;1.90;;;29.20;95.60;;;;;;4971156;28;20027;-78
2023/06/21 07:57:43;;;;;;;6.90;1.70;;;28.70;95.10;;;;;;4986729;28;20469;-79
2023/06/21 08:00:11;;;;;;;2.78;1.10;;;28.70;96.10;;;;;;4974078;28;20355;-78
2023/06/21 08:02:44;;;;;;;5.47;1.73;;;30.40;94.00;;;;;;4991385;28;20042;-79
2023/06/21 08:05:09;;;;;;;4.57;1.38;;;32.10;90.40;;;;;;4978800;28;20057;-79
2023/06/21 08:07:35;;;;;;;4.05;1.70;;;34.00;78.20;;;;;;4979382;28;20109;-80
2023/06/21 08:10:00;;;;;;;3.25;1.23;;;35.70;70.40;;;;;;4980820;28;20026;-79
2023/06/21 08:12:26;;;;;;;4.65;1.30;;;36.00;64.30;;;;;;4968418;28;20516;-79
2023/06/21 08:14:52;;;;;;;2.95;1.35;;;36.40;59.50;;;;;;4974807;28;20133;-79
2023/06/21 08:17:17;;;;;;;2.33;1.30;;;36.20;58.00;;;;;;4978998;28;20746;-78
2023/06/21 08:19:43;;;;;;;3.55;1.40;;;35.30;58.20;;;;;;4972697;28;20137;-78
2023/06/21 08:22:08;;;;;;;2.92;1.00;;;35.80;61.30;;;;;;4964092;28;20460;-78
2023/06/21 08:24:35;;;;;;;2.90;1.17;;;36.50;58.90;;;;;;4982152;28;20420;-78
2023/06/21 08:27:01;;;;;;;4.07;1.30;;;36.90;58.40;;;;;;4963972;28;20100;-78
2023/06/21 08:29:26;;;;;;;4.38;1.58;;;37.50;58.80;;;;;;4965677;28;20049;-78
2023/06/21 08:31:52;;;;;;;3.28;1.60;;;36.80;55.50;;;;;;4972888;28;20030;-78
2023/06/21 08:34:17;;;;;;;2.47;1.50;;;35.00;56.20;;;;;;4984372;28;20030;-77
2023/06/21 08:36:44;;;;;;;4.32;1.90;;;34.70;57.50;;;;;;4978491;28;20429;-77
2023/06/21 08:39:09;;;;;;;6.50;2.10;;;35.20;58.60;;;;;;4971266;28;20054;-78
2023/06/21 08:41:36;;;;;;;4.47;1.73;;;35.50;57.00;;;;;;4971711;28;20033;-79
2023/06/21 08:44:02;;;;;;;3.40;1.65;;;35.90;57.40;;;;;;4975996;28;20038;-78
2023/06/21 08:46:28;;;;;;;2.78;1.38;;;36.00;56.80;;;;;;4979432;28;20465;-78
2023/06/21 08:48:59;;;;;;;4.13;1.42;;;35.30;56.20;;;;;;4973767;28;20113;-77
2023/06/21 08:51:26;;;;;;;3.05;1.48;;;35.50;57.90;;;;;;4969626;28;20045;-78
2023/06/21 08:54:02;;;;;;;4.97;1.55;;;34.40;55.50;;;;;;4975809;28;20061;-79
2023/06/21 08:56:33;;;;;;;3.63;1.58;;;33.90;59.30;;;;;;4974054;28;20038;-78
2023/06/21 08:59:01;;;;;;;3.38;1.63;;;33.00;64.00;;;;;;4978993;28;20041;-78
2023/06/21 09:01:30;;;;;;;2.33;1.42;;;34.20;60.50;;;;;;4960879;28;20909;-79
2023/06/21 09:03:57;;;;;;;4.25;1.70;;;34.70;59.10;;;;;;4976424;28;20074;-78
2023/06/21 09:06:25;;;;;;;4.75;1.70;;;35.90;60.20;;;;;;4978376;28;20049;-78
2023/06/21 09:08:52;;;;;;;4.50;1.77;;;37.40;51.00;;;;;;4979364;28;20066;-77
2023/06/21 09:11:23;;;;;;;3.13;1.60;;;38.10;52.80;;;;;;4976816;28;20037;-77
2023/06/21 09:13:50;;;;;;;4.20;1.67;;;38.90;48.80;;;;;;4972660;28;20046;-80
2023/06/21 09:16:16;;;;;;;2.38;1.50;;;38.00;50.20;;;;;;4973854;28;20043;-78
2023/06/21 09:18:43;;;;;;;6.70;1.73;;;38.90;47.90;;;;;;4978457;28;20027;-78
2023/06/21 09:21:10;;;;;;;2.78;1.23;;;39.50;48.10;;;;;;4996165;28;20034;-78
2023/06/21 09:23:36;;;;;;;4.78;1.60;;;40.30;46.90;;;;;;4980993;28;20034;-79
2023/06/21 09:26:03;;;;;;;4.50;1.70;;;38.70;48.00;;;;;;4980682;28;20614;-77
2023/06/21 09:28:29;;;;;;;3.40;1.70;;;39.10;50.10;;;;;;4982475;28;20937;-79
2023/06/21 09:30:55;;;;;;;3.88;1.67;;;40.20;46.50;;;;;;4978983;28;20472;-78
2023/06/21 09:33:23;;;;;;;3.15;1.88;;;39.10;45.80;;;;;;4977709;28;20128;-77
2023/06/21 09:35:48;;;;;;;3.70;1.75;;;38.00;47.80;;;;;;4976877;28;20042;-78
2023/06/21 09:38:25;;;;;;;3.58;1.80;;;37.00;47.70;;;;;;4980379;28;20034;-79
2023/06/21 09:40:51;;;;;;;2.40;1.65;;;37.70;50.80;;;;;;4980407;28;20101;-78
2023/06/21 09:43:21;;;;;;;3.70;1.55;;;37.70;48.90;;;;;;4977301;28;20038;-79
2023/06/21 09:45:59;;;;;;;;;;;37.50;48.20;;;;;;4975700;28;20029;-79
2023/06/21 09:48:25;;;;;;;4.20;1.90;;;37.70;50.20;;;;;;4975523;28;19917;-78
2023/06/21 09:50:54;;;;;;;3.65;1.77;;;38.60;46.40;;;;;;4979988;28;20026;-78
2023/06/21 09:53:26;;;;;;;3.65;2.08;;;39.90;47.00;;;;;;4978190;28;20038;-78
2023/06/21 09:55:55;;;;;;;2.47;1.40;;;39.80;43.50;;;;;;4981012;28;20030;-78
2023/06/21 09:58:21;;;;;;;4.40;1.85;;;39.70;43.80;;;;;;4983870;28;20031;-78
2023/06/21 10:00:47;;;;;;;2.90;1.60;;;40.30;46.60;;;;;;4982469;28;20532;-78
2023/06/21 10:03:13;;;;;;;3.78;1.92;;;41.10;41.40;;;;;;4979469;28;20113;-78
2023/06/21 10:05:53;;;;;;;3.60;1.85;;;40.60;45.00;;;;;;4971602;28;20073;-78
2023/06/21 10:08:27;;;;;;;3.58;1.40;;;40.00;43.70;;;;;;4982202;28;20509;-79
2023/06/21 10:10:53;;;;;;;7.20;1.90;;;39.90;44.60;;;;;;4981336;28;20048;-77
2023/06/21 10:13:30;;;;;;;2.92;1.63;;;40.00;43.40;;;;;;4978668;28;20038;-78
2023/06/21 10:15:58;;;;;;;3.80;1.60;;;39.50;44.30;;;;;;4978965;28;20026;-77
2023/06/21 10:18:24;;;;;;;3.25;1.90;;;39.80;43.90;;;;;;4977192;28;20026;-77
2023/06/21 10:20:55;;;;;;;3.60;1.70;;;39.70;43.40;;;;;;4980579;28;20421;-78
2023/06/21 10:23:23;;;;;;;3.15;1.70;;;40.00;43.80;;;;;;4982750;28;20054;-78
2023/06/21 10:25:51;;;;;;;4.03;1.65;;;38.80;44.20;;;;;;4983981;28;20026;-76
2023/06/21 10:28:18;;;;;;;3.47;1.90;;;39.50;46.10;;;;;;4981664;28;20026;-76
2023/06/21 10:30:45;;;;;;;3.55;1.77;;;40.30;43.90;;;;;;4976982;28;20113;-77
2023/06/21 10:33:15;;;;;;;4.30;1.85;;;39.00;46.10;;;;;;4982993;28;20116;-77
2023/06/21 10:35:45;;;;;;;3.45;1.83;;;39.20;44.30;;;;;;4983369;28;20034;-75
2023/06/21 10:38:19;;;;;;;6.25;1.90;;;38.80;44.00;;;;;;4983530;28;20022;-75
2023/06/21 10:40:45;;;;;;;3.28;1.73;;;38.20;44.60;;;;;;4983082;28;20586;-76
2023/06/21 10:43:12;;;;;;;3.95;1.42;;;39.00;47.50;;;;;;4979950;28;20112;-75
2023/06/21 10:45:40;;;;;;;4.05;1.77;;;40.20;43.30;;;;;;4980716;28;20031;-74
2023/06/21 10:48:08;;;;;;;2.97;1.80;;;40.10;41.00;;;;;;4981681;28;20096;-76
2023/06/21 10:50:33;;;;;;;4.05;2.00;;;40.00;41.80;;;;;;4981329;28;20026;-75
2023/06/21 10:53:01;;;;;;;3.95;1.85;;;40.00;44.70;;;;;;4978150;28;20486;-75
2023/06/21 10:55:27;;;;;;;3.72;1.63;;;40.50;42.70;;;;;;4981694;28;20480;-76
2023/06/21 10:57:54;;;;;;;3.28;1.90;;;40.40;43.30;;;;;;4982187;28;20033;-75
2023/06/21 11:00:22;;;;;;;5.10;1.73;;;40.60;39.60;;;;;;4981246;28;20038;-75
2023/06/21 11:02:49;;;;;;;4.85;1.77;;;40.10;41.60;;;;;;4982553;28;20045;-76
2023/06/21 11:05:23;;;;;;;3.58;2.00;;;40.30;43.90;;;;;;4975413;28;20122;-75
2023/06/21 11:07:49;;;;;;;3.45;1.70;;;40.80;40.50;;;;;;4979905;28;20125;-74
2023/06/21 11:10:15;;;;;;;4.88;2.45;;;40.40;40.80;;;;;;4981599;28;20529;-76
2023/06/21 11:12:41;;;;;;;2.88;1.60;;;39.80;40.10;;;;;;4981616;28;20046;-76
2023/06/21 11:15:07;;;;;;;4.45;1.90;;;40.20;43.70;;;;;;4977897;28;20031;-75
2023/06/21 11:17:36;;;;;;;4.35;1.67;;;40.10;43.10;;;;;;4980140;28;20026;-74
2023/06/21 11:20:22;;;;;;;4.43;1.85;;;39.40;41.70;;;;;;4978264;28;20366;-76
2023/06/21 11:23:07;;;;;;;3.50;1.75;;;39.40;45.80;;;;;;4980945;28;20389;-77
2023/06/21 11:25:37;;;;;;;3.92;1.85;;;39.30;45.00;;;;;;4970392;28;20093;-75
2023/06/21 11:28:29;;;;;;;3.50;1.88;;;39.10;44.50;;;;;;3972438;28;10001410;-75
2023/06/21 11:31:03;;;;;;;3.72;1.70;;;38.30;44.00;;;;;;5022360;28;20091;-76
2023/06/21 11:34:05;;;;;;;5.13;2.35;;;37.30;46.30;;;;;;5011088;28;20514;-74
2023/06/21 11:36:34;;;;;;;4.75;2.30;;;35.90;51.10;;;;;;4977904;28;20099;-75
2023/06/21 11:39:10;;;;;;;3.90;2.08;;;34.00;54.60;;;;;;5020479;28;20033;-75
2023/06/21 11:41:57;;;;;;;3.63;2.28;;;32.70;60.80;;;;;;5020366;28;20033;-75
2023/06/21 11:44:30;;;;;;;5.15;1.88;;;31.60;61.80;;;;;;5017789;28;20129;-76
2023/06/21 11:47:18;;;;;;;4.03;2.17;;;30.80;65.80;;;;;;5013148;28;20041;-76
2023/06/21 11:49:53;;;;;;;6.50;2.90;;;30.10;64.20;;;;;;5019153;28;20061;-75
2023/06/21 11:52:24;;;;;;;5.40;2.25;;;29.10;71.30;;;;;;5027665;28;20040;-75
2023/06/21 11:54:50;;;;;;;5.47;2.60;;;28.70;78.30;;;;;;5015914;28;20088;-77
2023/06/21 11:57:16;;;;;;;5.13;2.55;;;28.30;84.30;;;;;;5012922;28;20066;-76
2023/06/21 11:59:43;;;;;;;5.47;2.20;;;28.70;88.20;;;;;;5017238;28;20033;-76
2023/06/21 12:02:16;;;;;;;5.82;2.45;;;29.30;90.00;;;;;;5019115;28;20048;-75
2023/06/21 12:04:44;;;;;;;3.72;2.00;;;29.40;90.40;;;;;;5017487;28;20050;-75
2023/06/21 12:07:10;;;;;;;7.57;2.63;;;29.40;90.40;;;;;;5014564;28;20381;-76
2023/06/21 12:09:39;;;;;;;3.33;2.75;;;29.20;82.50;;;;;;5015174;28;20036;-77
2023/06/21 12:12:09;;;;;;;4.65;2.75;;;28.50;84.40;;;;;;5017094;28;20464;-76
2023/06/21 12:14:36;;;;;;;5.77;2.60;;;28.20;93.90;;;;;;5016393;28;20017;-76
2023/06/21 12:17:02;;;;;;;5.30;2.83;;;27.90;91.80;;;;;;5012019;28;20080;-76
2023/06/21 12:19:27;;;;;;;3.78;2.50;;;28.00;95.60;;;;;;5015874;28;20029;-76
2023/06/21 12:22:01;;;;;;;3.28;2.30;;;28.20;87.30;;;;;;5013243;28;20054;-78
2023/06/21 12:24:30;;;;;;;3.38;2.60;;;28.30;93.80;;;;;;5008689;28;20516;-78
2023/06/21 12:26:58;;;;;;;5.07;2.92;;;28.40;86.80;;;;;;5018142;28;20567;-79
2023/06/21 12:29:25;;;;;;;3.47;2.45;;;27.90;93.30;;;;;;5015407;28;20496;-78
2023/06/21 12:31:50;;;;;;;4.57;2.97;;;27.70;92.40;;;;;;5011270;28;20116;-77
2023/06/21 12:34:16;;;;;;;3.97;2.38;;;27.30;92.30;;;;;;5016378;28;20125;-76
2023/06/21 12:36:45;;;;;;;3.90;2.53;;;27.70;97.80;;;;;;5002994;28;20492;-77
2023/06/21 12:39:14;;;;;;;3.95;2.40;;;27.50;92.00;;;;;;5005586;28;20523;-79
2023/06/21 12:41:41;;;;;;;4.45;2.78;;;27.60;90.00;;;;;;5003855;28;20036;-77
2023/06/21 12:44:20;;;;;;;5.10;2.60;;;27.60;91.80;;;;;;5014269;28;20053;-79
2023/06/21 12:46:46;;;;;;;5.22;2.50;;;27.50;96.50;;;;;;5011736;28;20439;-77